sensor_id;sensor_type;location;lat;lon;timestamp;pressure;altitude;pressure_sealevel;temperature;humidity
59240;BME280;45010;53.640;10.578;2024-01-16T00:00:37;99450.22;;;26.66;27.15
59240;BME280;45010;53.640;10.578;2024-01-16T00:03:38;99469.41;;;26.73;27.02
59240;BME280;45010;53.640;10.578;2024-01-16T00:06:42;99473.69;;;26.75;26.61
59240;BME280;45010;53.640;10.578;2024-01-16T00:09:42;99474.19;;;26.77;26.65
59240;BME280;45010;53.640;10.578;2024-01-16T00:12:43;99459.31;;;26.65;26.70
59240;BME280;45010;53.640;10.578;2024-01-16T00:15:43;99478.50;;;26.78;26.92
59240;BME280;45010;53.640;10.578;2024-01-16T00:18:43;99480.09;;;26.79;26.89
59240;BME280;45010;53.640;10.578;2024-01-16T00:21:44;99484.34;;;26.80;26.93
59240;BME280;45010;53.640;10.578;2024-01-16T00:24:47;99485.94;;;26.81;26.50
59240;BME280;45010;53.640;10.578;2024-01-16T00:27:48;99486.53;;;26.78;26.88
59240;BME280;45010;53.640;10.578;2024-01-16T00:30:48;99506.25;;;26.82;26.60
59240;BME280;45010;53.640;10.578;2024-01-16T00:33:49;99510.03;;;26.81;26.57
59240;BME280;45010;53.640;10.578;2024-01-16T00:36:49;99515.38;;;26.81;26.93
59240;BME280;45010;53.640;10.578;2024-01-16T00:39:49;99515.38;;;26.81;26.62
59240;BME280;45010;53.640;10.578;2024-01-16T00:42:50;99523.91;;;26.83;26.50
59240;BME280;45010;53.640;10.578;2024-01-16T00:45:50;99527.13;;;26.85;26.70
59240;BME280;45010;53.640;10.578;2024-01-16T00:48:50;99520.19;;;26.84;26.81
59240;BME280;45010;53.640;10.578;2024-01-16T00:51:51;99527.13;;;26.85;26.69
59240;BME280;45010;53.640;10.578;2024-01-16T00:54:51;99529.81;;;26.85;26.41
59240;BME280;45010;53.640;10.578;2024-01-16T00:57:51;99525.56;;;26.79;26.68
59240;BME280;45010;53.640;10.578;2024-01-16T01:00:52;99536.75;;;26.86;26.84
59240;BME280;45010;53.640;10.578;2024-01-16T01:03:53;99547.19;;;26.88;26.71
59240;BME280;45010;53.640;10.578;2024-01-16T01:06:53;99551.44;;;26.89;26.30
59240;BME280;45010;53.640;10.578;2024-01-16T01:09:53;99548.50;;;26.90;26.65
59240;BME280;45010;53.640;10.578;2024-01-16T01:12:54;99560.25;;;26.89;26.78
59240;BME280;45010;53.640;10.578;2024-01-16T01:15:54;99560.25;;;26.89;26.67
59240;BME280;45010;53.640;10.578;2024-01-16T01:18:54;99565.59;;;26.89;26.36
59240;BME280;45010;53.640;10.578;2024-01-16T01:21:55;99567.22;;;26.90;26.64
59240;BME280;45010;53.640;10.578;2024-01-16T01:24:55;99570.47;;;26.92;26.42
59240;BME280;45010;53.640;10.578;2024-01-16T01:27:55;99566.69;;;26.93;26.40
59240;BME280;45010;53.640;10.578;2024-01-16T01:30:56;99566.69;;;26.93;26.01
59240;BME280;45010;53.640;10.578;2024-01-16T01:33:56;99568.84;;;26.91;26.18
59240;BME280;45010;53.640;10.578;2024-01-16T01:36:56;99558.66;;;26.88;26.28
59240;BME280;45010;53.640;10.578;2024-01-16T01:39:58;99562.47;;;26.77;26.03
59240;BME280;45010;53.640;10.578;2024-01-16T01:43:16;99577.47;;;26.78;26.14
59240;BME280;45010;53.640;10.578;2024-01-16T01:46:18;99563.63;;;26.60;26.29
59240;BME280;45010;53.640;10.578;2024-01-16T01:49:19;99572.97;;;26.63;26.02
59240;BME280;45010;53.640;10.578;2024-01-16T01:52:19;99586.59;;;26.61;26.13
59240;BME280;45010;53.640;10.578;2024-01-16T01:55:20;99594.66;;;26.56;26.30
59240;BME280;45010;53.640;10.578;2024-01-16T01:58:20;99602.69;;;26.51;26.15
59240;BME280;45010;53.640;10.578;2024-01-16T02:01:21;99603.78;;;26.39;26.48
59240;BME280;45010;53.640;10.578;2024-01-16T02:04:24;99600.59;;;26.32;26.41
59240;BME280;45010;53.640;10.578;2024-01-16T02:07:26;99604.34;;;26.31;26.23
59240;BME280;45010;53.640;10.578;2024-01-16T02:10:26;99607.00;;;26.26;26.65
59240;BME280;45010;53.640;10.578;2024-01-16T02:13:28;99596.31;;;26.15;26.44
59240;BME280;45010;53.640;10.578;2024-01-16T02:16:35;99609.66;;;26.10;26.39
59240;BME280;45010;53.640;10.578;2024-01-16T02:19:36;99612.34;;;26.10;26.68
59240;BME280;45010;53.640;10.578;2024-01-16T02:22:37;99608.88;;;26.04;26.92
59240;BME280;45010;53.640;10.578;2024-01-16T02:25:40;99607.03;;;26.00;26.78
59240;BME280;45010;53.640;10.578;2024-01-16T02:28:41;99613.97;;;25.96;26.55
59240;BME280;45010;53.640;10.578;2024-01-16T02:31:41;99620.38;;;25.89;26.65
59240;BME280;45010;53.640;10.578;2024-01-16T02:34:42;99615.28;;;25.83;26.65
59240;BME280;45010;53.640;10.578;2024-01-16T02:37:43;99608.63;;;25.75;26.94
59240;BME280;45010;53.640;10.578;2024-01-16T02:40:44;99630.00;;;25.75;27.04
59240;BME280;45010;53.640;10.578;2024-01-16T02:43:44;99622.47;;;25.67;26.73
59240;BME280;45010;53.640;10.578;2024-01-16T02:46:45;99629.41;;;25.68;27.05
59240;BME280;45010;53.640;10.578;2024-01-16T02:49:45;99625.97;;;25.62;26.99
59240;BME280;45010;53.640;10.578;2024-01-16T02:52:45;99603.22;;;25.49;26.64
59240;BME280;45010;53.640;10.578;2024-01-16T02:55:46;99598.94;;;25.48;26.99
59240;BME280;45010;53.640;10.578;2024-01-16T02:58:46;99612.53;;;25.46;27.26
59240;BME280;45010;53.640;10.578;2024-01-16T03:01:46;99609.88;;;25.41;27.14
59240;BME280;45010;53.640;10.578;2024-01-16T03:04:47;99620.25;;;25.37;27.37
59240;BME280;45010;53.640;10.578;2024-01-16T03:07:47;99623.72;;;25.33;27.32
59240;BME280;45010;53.640;10.578;2024-01-16T03:10:47;99627.72;;;25.30;27.15
59240;BME280;45010;53.640;10.578;2024-01-16T03:13:48;99629.34;;;25.26;27.37
59240;BME280;45010;53.640;10.578;2024-01-16T03:16:52;99626.63;;;25.16;27.69
59240;BME280;45010;53.640;10.578;2024-01-16T03:19:52;99635.97;;;25.18;27.49
59240;BME280;45010;53.640;10.578;2024-01-16T03:22:53;99636.22;;;25.17;27.47
59240;BME280;45010;53.640;10.578;2024-01-16T03:25:53;99647.41;;;25.14;27.37
59240;BME280;45010;53.640;10.578;2024-01-16T03:28:53;99642.63;;;25.10;27.54
59240;BME280;45010;53.640;10.578;2024-01-16T03:31:54;99637.78;;;25.07;27.70
59240;BME280;45010;53.640;10.578;2024-01-16T03:34:55;99634.59;;;25.05;27.53
59240;BME280;45010;53.640;10.578;2024-01-16T03:37:55;99636.72;;;25.03;27.50
59240;BME280;45010;53.640;10.578;2024-01-16T03:40:55;99643.13;;;25.02;27.46
59240;BME280;45010;53.640;10.578;2024-01-16T03:43:56;99636.97;;;25.02;27.50
59240;BME280;45010;53.640;10.578;2024-01-16T03:46:56;99641.78;;;25.00;27.59
59240;BME280;45010;53.640;10.578;2024-01-16T03:49:57;99648.44;;;24.97;27.56
59240;BME280;45010;53.640;10.578;2024-01-16T03:52:57;99650.53;;;24.95;27.54
59240;BME280;45010;53.640;10.578;2024-01-16T03:55:57;99640.69;;;24.95;27.50
59240;BME280;45010;53.640;10.578;2024-01-16T03:58:58;99640.94;;;24.94;27.57
59240;BME280;45010;53.640;10.578;2024-01-16T04:02:00;99646.81;;;24.91;27.70
59240;BME280;45010;53.640;10.578;2024-01-16T04:05:00;99643.03;;;24.87;27.61
59240;BME280;45010;53.640;10.578;2024-01-16T04:08:00;99638.22;;;24.83;27.78
59240;BME280;45010;53.640;10.578;2024-01-16T04:11:01;99640.34;;;24.81;27.67
59240;BME280;45010;53.640;10.578;2024-01-16T04:14:02;99634.41;;;24.74;27.62
59240;BME280;45010;53.640;10.578;2024-01-16T04:17:02;99652.03;;;24.75;28.00
59240;BME280;45010;53.640;10.578;2024-01-16T04:20:03;99639.19;;;24.67;27.94
59240;BME280;45010;53.640;10.578;2024-01-16T04:23:05;99658.38;;;24.69;27.86
59240;BME280;45010;53.640;10.578;2024-01-16T04:26:05;99659.41;;;24.63;27.94
59240;BME280;45010;53.640;10.578;2024-01-16T04:29:06;99655.13;;;24.56;27.84
59240;BME280;45010;53.640;10.578;2024-01-16T04:32:06;99647.66;;;24.58;28.19
59240;BME280;45010;53.640;10.578;2024-01-16T04:35:07;99652.44;;;24.56;28.05
59240;BME280;45010;53.640;10.578;2024-01-16T04:38:07;99657.25;;;24.54;28.20
59240;BME280;45010;53.640;10.578;2024-01-16T04:41:07;99655.63;;;24.53;28.27
59240;BME280;45010;53.640;10.578;2024-01-16T04:44:08;99648.16;;;24.50;28.13
59240;BME280;45010;53.640;10.578;2024-01-16T04:47:08;99652.94;;;24.48;28.43
59240;BME280;45010;53.640;10.578;2024-01-16T04:50:08;99654.25;;;24.45;28.46
59240;BME280;45010;53.640;10.578;2024-01-16T04:53:09;99657.16;;;24.44;28.24
59240;BME280;45010;53.640;10.578;2024-01-16T04:56:09;99657.66;;;24.41;28.31
59240;BME280;45010;53.640;10.578;2024-01-16T04:59:09;99672.88;;;24.40;28.39
59240;BME280;45010;53.640;10.578;2024-01-16T05:02:10;99653.34;;;24.29;28.47
59240;BME280;45010;53.640;10.578;2024-01-16T05:05:10;99669.91;;;24.37;28.25
59240;BME280;45010;53.640;10.578;2024-01-16T05:08:10;99651.75;;;24.34;28.42
59240;BME280;45010;53.640;10.578;2024-01-16T05:11:11;99643.16;;;24.21;28.45
59240;BME280;45010;53.640;10.578;2024-01-16T05:14:11;99664.53;;;24.31;28.28
59240;BME280;45010;53.640;10.578;2024-01-16T05:17:11;99652.00;;;24.27;28.47
59240;BME280;45010;53.640;10.578;2024-01-16T05:20:12;99657.31;;;24.27;28.54
59240;BME280;45010;53.640;10.578;2024-01-16T05:23:12;99653.84;;;24.26;28.41
59240;BME280;45010;53.640;10.578;2024-01-16T05:26:13;99644.75;;;24.22;28.63
59240;BME280;45010;53.640;10.578;2024-01-16T05:29:13;99644.75;;;24.22;28.46
59240;BME280;45010;53.640;10.578;2024-01-16T05:32:14;99644.75;;;24.22;28.77
59240;BME280;45010;53.640;10.578;2024-01-16T05:35:14;99637.81;;;24.21;28.77
59240;BME280;45010;53.640;10.578;2024-01-16T05:38:14;99643.69;;;24.18;28.67
59240;BME280;45010;53.640;10.578;2024-01-16T05:41:14;99627.69;;;24.18;28.57
59240;BME280;45010;53.640;10.578;2024-01-16T05:44:15;99634.06;;;24.17;28.72
59240;BME280;45010;53.640;10.578;2024-01-16T05:47:16;99616.47;;;24.16;28.85
59240;BME280;45010;53.640;10.578;2024-01-16T05:50:16;99615.94;;;24.14;28.90
59240;BME280;45010;53.640;10.578;2024-01-16T05:53:18;99619.66;;;24.13;28.87
59240;BME280;45010;53.640;10.578;2024-01-16T05:56:19;99634.81;;;24.12;28.49
59240;BME280;45010;53.640;10.578;2024-01-16T05:59:19;99644.69;;;24.12;28.06
59240;BME280;45010;53.640;10.578;2024-01-16T06:02:20;99639.84;;;24.09;28.09
59240;BME280;45010;53.640;10.578;2024-01-16T06:05:20;99640.69;;;24.09;28.14
59240;BME280;45010;53.640;10.578;2024-01-16T06:08:20;99649.94;;;24.07;28.24
59240;BME280;45010;53.640;10.578;2024-01-16T06:11:31;99633.09;;;24.01;28.43
59240;BME280;45010;53.640;10.578;2024-01-16T06:14:31;99644.03;;;24.04;28.51
59240;BME280;45010;53.640;10.578;2024-01-16T06:17:32;99634.44;;;24.03;28.62
59240;BME280;45010;53.640;10.578;2024-01-16T06:20:32;99636.34;;;24.03;28.71
59240;BME280;45010;53.640;10.578;2024-01-16T06:23:33;99635.53;;;24.02;28.64
59240;BME280;45010;53.640;10.578;2024-01-16T06:26:33;99640.84;;;24.02;28.73
59240;BME280;45010;53.640;10.578;2024-01-16T06:29:33;99637.66;;;24.00;28.58
59240;BME280;45010;53.640;10.578;2024-01-16T06:32:34;99636.03;;;23.99;28.75
59240;BME280;45010;53.640;10.578;2024-01-16T06:35:34;99636.03;;;23.99;28.51
59240;BME280;45010;53.640;10.578;2024-01-16T06:38:34;99634.41;;;23.98;28.93
59240;BME280;45010;53.640;10.578;2024-01-16T06:41:35;99627.47;;;23.97;28.87
59240;BME280;45010;53.640;10.578;2024-01-16T06:44:35;99635.47;;;23.97;29.27
59240;BME280;45010;53.640;10.578;2024-01-16T06:47:35;99637.59;;;23.95;29.10
59240;BME280;45010;53.640;10.578;2024-01-16T06:50:36;99632.28;;;23.95;28.94
59240;BME280;45010;53.640;10.578;2024-01-16T06:53:37;99639.44;;;23.95;29.13
59240;BME280;45010;53.640;10.578;2024-01-16T06:56:37;99636.00;;;23.94;29.20
59240;BME280;45010;53.640;10.578;2024-01-16T06:59:37;99627.19;;;23.94;29.10
59240;BME280;45010;53.640;10.578;2024-01-16T07:02:38;99637.84;;;23.94;29.15
59240;BME280;45010;53.640;10.578;2024-01-16T07:05:38;99637.06;;;23.93;29.17
59240;BME280;45010;53.640;10.578;2024-01-16T07:08:40;99642.38;;;23.93;29.24
59240;BME280;45010;53.640;10.578;2024-01-16T07:11:41;99640.22;;;23.90;29.50
59240;BME280;45010;53.640;10.578;2024-01-16T07:14:42;99647.13;;;23.91;29.29
59240;BME280;45010;53.640;10.578;2024-01-16T07:17:43;99636.44;;;23.86;29.52
59240;BME280;45010;53.640;10.578;2024-01-16T07:20:43;99636.72;;;23.89;29.61
59240;BME280;45010;53.640;10.578;2024-01-16T07:23:43;99645.00;;;23.88;29.40
59240;BME280;45010;53.640;10.578;2024-01-16T07:26:44;99640.69;;;23.87;29.41
59240;BME280;45010;53.640;10.578;2024-01-16T07:29:44;99642.34;;;23.88;29.17
59240;BME280;45010;53.640;10.578;2024-01-16T07:32:45;99643.94;;;23.89;29.37
59240;BME280;45010;53.640;10.578;2024-01-16T07:35:45;99642.34;;;23.88;29.34
59240;BME280;45010;53.640;10.578;2024-01-16T07:38:47;99645.25;;;23.86;29.77
59240;BME280;45010;53.640;10.578;2024-01-16T07:41:49;99650.84;;;23.90;30.01
59240;BME280;45010;53.640;10.578;2024-01-16T07:44:49;99650.84;;;23.90;30.83
59240;BME280;45010;53.640;10.578;2024-01-16T07:47:50;99654.34;;;23.90;31.03
59240;BME280;45010;53.640;10.578;2024-01-16T07:50:50;99650.31;;;23.88;31.04
59240;BME280;45010;53.640;10.578;2024-01-16T07:54:04;99657.28;;;23.94;31.02
59240;BME280;45010;53.640;10.578;2024-01-16T07:57:05;99650.38;;;23.98;31.05
59240;BME280;45010;53.640;10.578;2024-01-16T08:00:06;99654.69;;;24.04;30.83
59240;BME280;45010;53.640;10.578;2024-01-16T08:03:11;99647.59;;;24.10;30.89
59240;BME280;45010;53.640;10.578;2024-01-16T08:06:13;99646.59;;;24.16;30.59
59240;BME280;45010;53.640;10.578;2024-01-16T08:09:13;99627.91;;;24.11;30.55
59240;BME280;45010;53.640;10.578;2024-01-16T08:12:14;99651.19;;;24.26;30.32
59240;BME280;45010;53.640;10.578;2024-01-16T08:15:14;99645.91;;;24.31;30.04
59240;BME280;45010;53.640;10.578;2024-01-16T08:18:15;99645.38;;;24.35;30.05
59240;BME280;45010;53.640;10.578;2024-01-16T08:21:17;99652.34;;;24.41;29.79
59240;BME280;45010;53.640;10.578;2024-01-16T08:24:18;99648.94;;;24.45;29.86
59240;BME280;45010;53.640;10.578;2024-01-16T08:27:19;99640.66;;;24.47;29.63
59240;BME280;45010;53.640;10.578;2024-01-16T08:30:19;99658.03;;;24.55;29.42
59240;BME280;45010;53.640;10.578;2024-01-16T08:33:19;99655.66;;;24.58;29.45
59240;BME280;45010;53.640;10.578;2024-01-16T08:36:20;99657.00;;;24.61;29.04
59240;BME280;45010;53.640;10.578;2024-01-16T08:39:20;99656.50;;;24.64;29.32
59240;BME280;45010;53.640;10.578;2024-01-16T08:42:20;99650.13;;;24.70;29.35
59240;BME280;45010;53.640;10.578;2024-01-16T08:45:21;99659.78;;;24.77;29.35
59240;BME280;45010;53.640;10.578;2024-01-16T08:48:21;99657.94;;;24.82;29.31
59240;BME280;45010;53.640;10.578;2024-01-16T08:51:22;99659.84;;;24.87;29.36
59240;BME280;45010;53.640;10.578;2024-01-16T08:54:22;99665.19;;;24.92;29.04
59240;BME280;45010;53.640;10.578;2024-01-16T08:57:23;99654.00;;;24.90;29.20
59240;BME280;45010;53.640;10.578;2024-01-16T09:00:23;99667.63;;;24.99;28.64
59240;BME280;45010;53.640;10.578;2024-01-16T09:03:23;99666.59;;;25.05;28.82
59240;BME280;45010;53.640;10.578;2024-01-16T09:06:24;99667.69;;;25.09;28.68
59240;BME280;45010;53.640;10.578;2024-01-16T09:09:24;99675.72;;;25.15;28.31
59240;BME280;45010;53.640;10.578;2024-01-16T09:12:24;99673.03;;;25.20;28.53
59240;BME280;45010;53.640;10.578;2024-01-16T09:15:26;99677.88;;;25.23;28.38
59240;BME280;45010;53.640;10.578;2024-01-16T09:18:26;99682.41;;;25.28;27.63
59240;BME280;45010;53.640;10.578;2024-01-16T09:21:27;99669.34;;;25.31;27.95
59240;BME280;45010;53.640;10.578;2024-01-16T09:24:28;99674.19;;;25.34;27.91
59240;BME280;45010;53.640;10.578;2024-01-16T09:27:29;99680.63;;;25.38;27.99
59240;BME280;45010;53.640;10.578;2024-01-16T09:30:29;99670.97;;;25.37;27.60
59240;BME280;45010;53.640;10.578;2024-01-16T09:33:29;99680.59;;;25.44;27.94
59240;BME280;45010;53.640;10.578;2024-01-16T09:36:30;99672.06;;;25.42;27.65
59240;BME280;45010;53.640;10.578;2024-01-16T09:39:30;99673.44;;;25.49;27.66
59240;BME280;45010;53.640;10.578;2024-01-16T09:42:31;99678.50;;;25.51;27.78
59240;BME280;45010;53.640;10.578;2024-01-16T09:45:32;99676.09;;;25.49;27.84
59240;BME280;45010;53.640;10.578;2024-01-16T09:48:34;99684.94;;;25.55;27.97
59240;BME280;45010;53.640;10.578;2024-01-16T09:51:34;99680.94;;;25.58;27.71
59240;BME280;45010;53.640;10.578;2024-01-16T09:54:34;99676.94;;;25.60;27.72
59240;BME280;45010;53.640;10.578;2024-01-16T09:57:39;99678.00;;;25.59;27.80
59240;BME280;45010;53.640;10.578;2024-01-16T10:00:43;99684.47;;;25.69;27.33
59240;BME280;45010;53.640;10.578;2024-01-16T10:03:45;99680.16;;;25.73;27.48
59240;BME280;45010;53.640;10.578;2024-01-16T10:06:45;99656.94;;;25.63;27.25
59240;BME280;45010;53.640;10.578;2024-01-16T10:09:47;99680.72;;;25.80;27.27
59240;BME280;45010;53.640;10.578;2024-01-16T10:12:49;99684.72;;;25.83;27.34
59240;BME280;45010;53.640;10.578;2024-01-16T10:15:50;99683.41;;;25.85;27.26
59240;BME280;45010;53.640;10.578;2024-01-16T10:19:03;99687.94;;;25.85;26.93
59240;BME280;45010;53.640;10.578;2024-01-16T10:22:05;99687.13;;;25.84;27.13
59240;BME280;45010;53.640;10.578;2024-01-16T10:25:10;99685.53;;;25.83;27.26
59240;BME280;45010;53.640;10.578;2024-01-16T10:28:19;99684.47;;;25.84;27.03
59240;BME280;45010;53.640;10.578;2024-01-16T10:31:26;99680.47;;;25.87;27.23
59240;BME280;45010;53.640;10.578;2024-01-16T10:34:30;99685.28;;;25.90;27.02
59240;BME280;45010;53.640;10.578;2024-01-16T10:37:47;99698.34;;;25.91;26.97
59240;BME280;45010;53.640;10.578;2024-01-16T10:40:47;99691.97;;;25.92;26.83
59240;BME280;45010;53.640;10.578;2024-01-16T10:43:48;99690.91;;;25.94;26.87
59240;BME280;45010;53.640;10.578;2024-01-16T10:46:48;99676.97;;;25.86;26.83
59240;BME280;45010;53.640;10.578;2024-01-16T10:49:49;99700.25;;;25.96;26.81
59240;BME280;45010;53.640;10.578;2024-01-16T10:52:50;99686.59;;;25.98;26.56
59240;BME280;45010;53.640;10.578;2024-01-16T10:55:51;99677.53;;;25.94;26.95
59240;BME280;45010;53.640;10.578;2024-01-16T11:01:59;99697.28;;;25.98;26.81
59240;BME280;45010;53.640;10.578;2024-01-16T11:05:00;99697.84;;;26.05;26.70
59240;BME280;45010;53.640;10.578;2024-01-16T11:08:01;99697.84;;;26.05;26.38
59240;BME280;45010;53.640;10.578;2024-01-16T11:11:01;99687.16;;;25.95;26.79
59240;BME280;45010;53.640;10.578;2024-01-16T11:14:03;99697.03;;;26.04;26.59
59240;BME280;45010;53.640;10.578;2024-01-16T11:17:04;99697.03;;;26.04;26.88
59240;BME280;45010;53.640;10.578;2024-01-16T11:20:05;99714.44;;;26.12;26.89
59240;BME280;45010;53.640;10.578;2024-01-16T11:23:11;99709.09;;;26.12;26.97
59240;BME280;45010;53.640;10.578;2024-01-16T11:26:29;99712.28;;;26.14;26.70
59240;BME280;45010;53.640;10.578;2024-01-16T11:29:35;99713.88;;;26.15;26.88
59240;BME280;45010;53.640;10.578;2024-01-16T11:32:40;99702.13;;;26.11;26.97
59240;BME280;45010;53.640;10.578;2024-01-16T11:35:41;99711.75;;;26.17;26.30
59240;BME280;45010;53.640;10.578;2024-01-16T11:38:41;99718.69;;;26.18;26.79
59240;BME280;45010;53.640;10.578;2024-01-16T11:41:55;99721.91;;;26.21;26.87
59240;BME280;45010;53.640;10.578;2024-01-16T11:44:55;99713.34;;;26.18;26.74
59240;BME280;45010;53.640;10.578;2024-01-16T11:48:12;99711.22;;;26.21;26.71
59240;BME280;45010;53.640;10.578;2024-01-16T11:51:23;99712.81;;;26.22;26.73
59240;BME280;45010;53.640;10.578;2024-01-16T11:54:24;99702.13;;;26.22;26.79
59240;BME280;45010;53.640;10.578;2024-01-16T12:01:05;99697.31;;;26.18;26.65
59240;BME280;45010;53.640;10.578;2024-01-16T12:04:06;99693.31;;;26.16;26.70
59240;BME280;45010;53.640;10.578;2024-01-16T12:07:06;99702.13;;;26.22;26.50
59240;BME280;45010;53.640;10.578;2024-01-16T12:10:07;99696.00;;;26.21;26.82
59240;BME280;45010;53.640;10.578;2024-01-16T12:13:12;99676.50;;;26.05;26.85
59240;BME280;45010;53.640;10.578;2024-01-16T12:16:12;99700.53;;;26.21;26.58
59240;BME280;45010;53.640;10.578;2024-01-16T12:19:13;99705.88;;;26.21;26.48
59240;BME280;45010;53.640;10.578;2024-01-16T12:22:13;99693.03;;;26.12;26.93
59240;BME280;45010;53.640;10.578;2024-01-16T12:25:19;99682.88;;;26.09;26.70
59240;BME280;45010;53.640;10.578;2024-01-16T12:28:20;99698.91;;;26.19;26.98
59240;BME280;45010;53.640;10.578;2024-01-16T12:31:21;99697.84;;;26.15;26.56
59240;BME280;45010;53.640;10.578;2024-01-16T12:34:22;99702.66;;;26.18;26.32
59240;BME280;45010;53.640;10.578;2024-01-16T12:37:22;99705.84;;;26.15;26.77
59240;BME280;45010;53.640;10.578;2024-01-16T12:40:22;99706.94;;;26.14;26.22
59240;BME280;45010;53.640;10.578;2024-01-16T12:43:23;99704.81;;;26.11;26.31
59240;BME280;45010;53.640;10.578;2024-01-16T12:46:24;99697.84;;;26.10;26.08
59240;BME280;45010;53.640;10.578;2024-01-16T12:49:24;99698.91;;;26.09;26.24
59240;BME280;45010;53.640;10.578;2024-01-16T12:52:24;99691.16;;;26.08;26.39
59240;BME280;45010;53.640;10.578;2024-01-16T12:55:26;99676.75;;;25.98;26.02
59240;BME280;45010;53.640;10.578;2024-01-16T12:58:32;99695.19;;;26.00;25.99
59240;BME280;45010;53.640;10.578;2024-01-16T13:01:34;99703.72;;;26.02;25.93
59240;BME280;45010;53.640;10.578;2024-01-16T13:04:35;99684.47;;;25.89;26.16
59240;BME280;45010;53.640;10.578;2024-01-16T13:07:35;99687.69;;;25.91;26.48
59240;BME280;45010;53.640;10.578;2024-01-16T13:10:36;99694.91;;;25.96;26.72
59240;BME280;45010;53.640;10.578;2024-01-16T13:13:38;99697.03;;;25.94;26.74
59240;BME280;45010;53.640;10.578;2024-01-16T13:16:38;99701.59;;;25.94;26.58
59240;BME280;45010;53.640;10.578;2024-01-16T13:19:39;99704.25;;;25.94;26.86
59240;BME280;45010;53.640;10.578;2024-01-16T13:22:40;99696.25;;;25.94;26.97
59240;BME280;45010;53.640;10.578;2024-01-16T13:25:42;99688.22;;;25.94;26.68
59240;BME280;45010;53.640;10.578;2024-01-16T13:28:43;99675.94;;;25.87;26.32
59240;BME280;45010;53.640;10.578;2024-01-16T13:31:43;99687.16;;;25.95;26.92
59240;BME280;45010;53.640;10.578;2024-01-16T13:34:44;99680.72;;;25.90;26.87
59240;BME280;45010;53.640;10.578;2024-01-16T13:37:49;99695.16;;;25.95;26.53
59240;BME280;45010;53.640;10.578;2024-01-16T13:40:50;99697.03;;;25.94;26.35
59240;BME280;45010;53.640;10.578;2024-01-16T13:43:50;99692.22;;;25.91;26.65
59240;BME280;45010;53.640;10.578;2024-01-16T13:46:51;99691.41;;;25.90;26.51
59240;BME280;45010;53.640;10.578;2024-01-16T13:49:52;99680.44;;;25.82;26.34
59240;BME280;45010;53.640;10.578;2024-01-16T13:52:52;99694.88;;;25.86;26.31
59240;BME280;45010;53.640;10.578;2024-01-16T13:55:53;99696.22;;;25.83;26.11
59240;BME280;45010;53.640;10.578;2024-01-16T13:58:54;99694.06;;;25.85;26.24
59240;BME280;45010;53.640;10.578;2024-01-16T14:01:54;99703.69;;;25.86;26.31
59240;BME280;45010;53.640;10.578;2024-01-16T14:04:55;99707.19;;;25.87;26.11
59240;BME280;45010;53.640;10.578;2024-01-16T14:07:55;99710.09;;;25.85;26.39
59240;BME280;45010;53.640;10.578;2024-01-16T14:10:55;99698.63;;;25.85;25.39
59240;BME280;45010;53.640;10.578;2024-01-16T14:13:56;99694.63;;;25.82;25.51
59240;BME280;45010;53.640;10.578;2024-01-16T14:16:57;99698.38;;;25.81;25.31
59240;BME280;45010;53.640;10.578;2024-01-16T14:19:57;99696.22;;;25.78;25.65
59240;BME280;45010;53.640;10.578;2024-01-16T14:22:59;99683.41;;;25.75;25.54
59240;BME280;45010;53.640;10.578;2024-01-16T14:25:59;99692.75;;;25.77;25.45
59240;BME280;45010;53.640;10.578;2024-01-16T14:29:00;99670.03;;;25.64;25.98
59240;BME280;45010;53.640;10.578;2024-01-16T14:32:00;99697.03;;;25.78;25.98
59240;BME280;45010;53.640;10.578;2024-01-16T14:35:01;99698.38;;;25.81;26.05
59240;BME280;45010;53.640;10.578;2024-01-16T14:38:01;99694.09;;;25.75;26.13
59240;BME280;45010;53.640;10.578;2024-01-16T14:41:01;99704.22;;;25.83;25.92
59240;BME280;45010;53.640;10.578;2024-01-16T14:44:03;99691.69;;;25.84;26.04
59240;BME280;45010;53.640;10.578;2024-01-16T14:47:06;99695.16;;;25.84;25.88
59240;BME280;45010;53.640;10.578;2024-01-16T14:50:07;99695.69;;;25.81;25.99
59240;BME280;45010;53.640;10.578;2024-01-16T14:53:08;99701.31;;;25.85;26.16
59240;BME280;45010;53.640;10.578;2024-01-16T14:56:08;99694.06;;;25.85;26.20
59240;BME280;45010;53.640;10.578;2024-01-16T14:59:09;99702.66;;;25.87;26.40
59240;BME280;45010;53.640;10.578;2024-01-16T15:02:09;99695.69;;;25.86;26.44
59240;BME280;45010;53.640;10.578;2024-01-16T15:05:14;99701.03;;;25.86;26.65
59240;BME280;45010;53.640;10.578;2024-01-16T15:08:15;99693.78;;;25.76;26.52
59240;BME280;45010;53.640;10.578;2024-01-16T15:11:15;99701.03;;;25.86;26.90
59240;BME280;45010;53.640;10.578;2024-01-16T15:14:17;99701.03;;;25.86;27.00
59240;BME280;45010;53.640;10.578;2024-01-16T15:17:17;99694.63;;;25.82;26.74
59240;BME280;45010;53.640;10.578;2024-01-16T15:20:18;99714.94;;;25.88;27.06
59240;BME280;45010;53.640;10.578;2024-01-16T15:23:18;99712.25;;;25.88;26.91
59240;BME280;45010;53.640;10.578;2024-01-16T15:26:18;99716.00;;;25.87;27.10
59240;BME280;45010;53.640;10.578;2024-01-16T15:29:20;99709.59;;;25.88;27.05
59240;BME280;45010;53.640;10.578;2024-01-16T15:32:21;99713.34;;;25.87;27.12
59240;BME280;45010;53.640;10.578;2024-01-16T15:35:22;99708.00;;;25.87;27.44
59240;BME280;45010;53.640;10.578;2024-01-16T15:38:22;99711.19;;;25.89;27.44
59240;BME280;45010;53.640;10.578;2024-01-16T15:41:23;99714.94;;;25.88;27.58
59240;BME280;45010;53.640;10.578;2024-01-16T15:44:23;99719.47;;;25.88;27.63
59240;BME280;45010;53.640;10.578;2024-01-16T15:47:24;99718.66;;;25.87;27.51
59240;BME280;45010;53.640;10.578;2024-01-16T15:50:24;99714.94;;;25.88;27.58
59240;BME280;45010;53.640;10.578;2024-01-16T15:53:26;99722.13;;;25.88;27.46